Time;durP1;ratioP1;P1;durP2;ratioP2;P2;SDS_P1;SDS_P2;PMS_P1;PMS_P2;Temp;Humidity;BMP_temperature;BMP_pressure;BME280_temperature;BME280_humidity;BME280_pressure;Samples;Min_cycle;Max_cycle;Signal;HPM_P1;HPM_P2
2022/10/26 00:01:19;;;;;;;2.73;2.50;;;12.80;99.90;;;;;;5034217;28;20190;-51
2022/10/26 00:03:46;;;;;;;5.13;2.80;;;12.80;99.90;;;;;;5051546;28;20259;-52
2022/10/26 00:06:16;;;;;;;2.50;2.40;;;12.80;99.90;;;;;;5053638;28;20229;-51
2022/10/26 00:08:45;;;;;;;3.20;2.90;;;12.80;99.90;;;;;;5052798;28;20617;-51
2022/10/26 00:11:12;;;;;;;2.90;2.67;;;12.80;99.90;;;;;;5043100;28;20248;-50
2022/10/26 00:13:40;;;;;;;6.50;2.50;;;12.70;99.90;;;;;;5044978;28;20679;-51
2022/10/26 00:16:12;;;;;;;6.97;2.70;;;12.80;99.90;;;;;;5053661;28;20217;-56
2022/10/26 00:18:39;;;;;;;3.67;3.47;;;12.80;99.90;;;;;;5051428;28;20659;-50
2022/10/26 00:21:07;;;;;;;2.60;2.40;;;12.70;99.90;;;;;;5039284;28;20631;-51
2022/10/26 00:23:34;;;;;;;2.60;2.40;;;12.70;99.90;;;;;;5048778;28;20196;-50
2022/10/26 00:26:03;;;;;;;3.10;2.40;;;12.70;99.90;;;;;;5044979;28;20703;-50
2022/10/26 00:28:30;;;;;;;2.10;1.67;;;12.70;99.90;;;;;;5052600;28;20197;-50
2022/10/26 00:31:01;;;;;;;2.70;2.57;;;12.60;99.90;;;;;;5039477;28;20198;-51
2022/10/26 00:33:28;;;;;;;2.57;2.37;;;12.60;99.90;;;;;;5048569;28;20285;-50
2022/10/26 00:35:56;;;;;;;2.17;1.77;;;12.50;99.90;;;;;;5052978;28;20269;-51
2022/10/26 00:38:23;;;;;;;2.00;1.90;;;12.50;99.90;;;;;;5052106;28;20205;-51
2022/10/26 00:40:50;;;;;;;8.50;2.77;;;12.50;99.90;;;;;;5049538;28;20255;-49
2022/10/26 00:43:35;;;;;;;1.93;1.77;;;12.60;99.90;;;;;;5040888;28;20191;-51
2022/10/26 00:46:04;;;;;;;3.33;2.37;;;12.70;99.90;;;;;;5033031;28;20292;-51
2022/10/26 00:48:37;;;;;;;1.70;1.57;;;12.70;99.90;;;;;;5032799;28;20260;-52
2022/10/26 00:51:09;;;;;;;1.80;1.70;;;12.70;99.90;;;;;;5045229;28;20209;-50
2022/10/26 00:53:37;;;;;;;1.47;1.37;;;12.80;99.90;;;;;;5040649;28;20291;-51
2022/10/26 00:56:05;;;;;;;1.60;1.50;;;12.70;99.90;;;;;;5052559;28;20220;-50
2022/10/26 00:58:32;;;;;;;1.80;1.50;;;12.80;99.90;;;;;;5052569;28;20235;-50
2022/10/26 01:01:01;;;;;;;1.77;1.10;;;12.90;99.90;;;;;;5043008;28;20197;-50
2022/10/26 01:03:30;;;;;;;2.30;1.33;;;12.90;99.90;;;;;;5044713;28;20198;-50
2022/10/26 01:05:58;;;;;;;1.47;1.40;;;13.00;99.90;;;;;;5040922;28;20750;-50
2022/10/26 01:08:27;;;;;;;1.70;1.60;;;12.90;99.90;;;;;;5039130;28;20202;-50
2022/10/26 01:10:54;;;;;;;3.00;1.87;;;12.90;99.90;;;;;;5050906;28;20200;-51
2022/10/26 01:13:21;;;;;;;1.70;1.60;;;12.90;99.90;;;;;;5052051;28;20209;-50
2022/10/26 01:15:56;;;;;;;1.30;1.27;;;12.80;99.90;;;;;;5051147;28;20303;-50
2022/10/26 01:18:35;;;;;;;1.83;1.73;;;12.80;99.90;;;;;;5044552;28;20255;-50
2022/10/26 01:21:39;;;;;;;3.20;1.57;;;12.70;99.90;;;;;;5044179;28;20259;-51
2022/10/26 01:24:49;;;;;;;2.63;2.37;;;12.70;99.90;;;;;;5051882;28;20209;-51
2022/10/26 01:27:25;;;;;;;2.17;1.97;;;12.70;99.90;;;;;;5044175;28;20706;-50
2022/10/26 01:30:33;;;;;;;1.50;1.40;;;12.80;99.90;;;;;;5050795;28;20733;-51
2022/10/26 01:33:30;;;;;;;3.00;1.63;;;12.80;99.90;;;;;;5051725;28;20241;-50
2022/10/26 01:36:06;;;;;;;1.67;1.17;;;12.90;99.90;;;;;;5034810;28;20287;-50
2022/10/26 01:38:38;;;;;;;4.80;2.27;;;12.90;99.90;;;;;;5039531;28;20208;-51
2022/10/26 01:41:11;;;;;;;2.77;1.50;;;12.80;99.90;;;;;;5039557;28;20206;-49
2022/10/26 01:43:42;;;;;;;1.60;1.47;;;12.80;99.90;;;;;;5048596;28;20204;-51
2022/10/26 01:46:13;;;;;;;3.30;1.80;;;12.80;99.90;;;;;;5051724;28;20770;-50
2022/10/26 01:48:42;;;;;;;1.43;1.33;;;12.80;99.90;;;;;;5050378;28;20740;-50
2022/10/26 01:51:11;;;;;;;3.43;1.33;;;12.70;99.90;;;;;;5048270;28;20291;-50
2022/10/26 01:53:44;;;;;;;1.97;1.60;;;12.70;99.90;;;;;;5038602;28;20203;-50
2022/10/26 01:56:18;;;;;;;4.50;1.97;;;12.60;99.90;;;;;;5038570;28;20632;-50
2022/10/26 01:59:00;;;;;;;1.47;1.37;;;12.50;99.90;;;;;;5040650;28;20200;-51
2022/10/26 02:01:49;;;;;;;1.40;1.00;;;12.50;99.90;;;;;;5035708;28;20206;-52
2022/10/26 02:04:27;;;;;;;2.43;1.33;;;12.40;99.90;;;;;;5031646;28;20229;-50
2022/10/26 02:07:02;;;;;;;1.27;0.90;;;12.40;99.90;;;;;;5041524;28;20228;-50
2022/10/26 02:09:35;;;;;;;1.37;0.80;;;12.50;99.90;;;;;;5050524;28;20639;-50
2022/10/26 02:12:11;;;;;;;2.27;1.13;;;12.50;99.90;;;;;;5043689;28;20342;-51
2022/10/26 02:14:47;;;;;;;1.77;0.97;;;12.60;99.90;;;;;;5051288;28;20627;-50
2022/10/26 02:17:23;;;;;;;1.47;1.00;;;12.50;99.90;;;;;;5049682;28;20228;-51
2022/10/26 02:19:54;;;;;;;1.50;0.90;;;12.50;99.90;;;;;;5041329;28;20207;-51
2022/10/26 02:22:25;;;;;;;0.80;0.80;;;12.70;99.90;;;;;;5045266;28;20622;-50
2022/10/26 02:24:53;;;;;;;2.63;1.10;;;12.70;99.90;;;;;;5045903;28;20258;-51
2022/10/26 02:27:24;;;;;;;1.50;1.03;;;12.60;99.90;;;;;;5039585;28;20636;-51
2022/10/26 02:29:52;;;;;;;2.30;0.90;;;12.60;99.90;;;;;;5045894;28;20200;-51
2022/10/26 02:32:23;;;;;;;0.67;0.67;;;12.70;99.90;;;;;;5037156;28;20659;-50
2022/10/26 02:34:53;;;;;;;1.17;0.90;;;12.70;99.90;;;;;;5050986;28;20205;-50
2022/10/26 02:37:22;;;;;;;3.90;1.10;;;12.60;99.90;;;;;;5051055;28;20233;-50
2022/10/26 02:39:52;;;;;;;1.37;1.27;;;12.60;99.90;;;;;;5050510;28;20281;-51
2022/10/26 02:42:20;;;;;;;1.50;1.40;;;12.60;99.90;;;;;;5050343;28;20208;-50
2022/10/26 02:44:51;;;;;;;1.40;1.10;;;12.40;99.90;;;;;;5040965;28;20259;-50
2022/10/26 02:47:21;;;;;;;2.03;1.17;;;12.30;99.90;;;;;;5037546;28;20240;-51
2022/10/26 02:49:48;;;;;;;1.70;0.60;;;12.30;99.90;;;;;;5044814;28;20295;-50
2022/10/26 02:52:22;;;;;;;1.37;1.27;;;12.30;99.90;;;;;;5044046;28;20206;-51
2022/10/26 02:54:54;;;;;;;1.33;0.97;;;12.30;99.90;;;;;;5044270;28;20201;-50
2022/10/26 02:57:26;;;;;;;3.07;1.10;;;12.50;99.90;;;;;;5044694;28;20217;-50
2022/10/26 02:59:54;;;;;;;1.30;1.30;;;12.70;99.90;;;;;;5049931;28;20685;-51
2022/10/26 03:02:23;;;;;;;2.17;1.63;;;12.70;99.90;;;;;;5054075;28;20205;-50
2022/10/26 03:04:50;;;;;;;4.17;1.73;;;12.70;99.90;;;;;;5047405;28;20288;-50
2022/10/26 03:07:21;;;;;;;3.60;2.00;;;12.60;99.90;;;;;;5035803;28;20233;-51
2022/10/26 03:09:48;;;;;;;1.43;0.83;;;12.80;99.90;;;;;;5048092;28;20201;-50
2022/10/26 03:12:16;;;;;;;1.90;0.60;;;13.00;99.90;;;;;;5047657;28;20248;-50
2022/10/26 03:14:43;;;;;;;3.67;0.80;;;13.20;99.90;;;;;;5045079;28;20625;-50
2022/10/26 03:17:10;;;;;;;1.70;0.50;;;13.40;99.90;;;;;;5034694;28;20225;-50
2022/10/26 03:19:39;;;;;;;0.70;0.50;;;13.50;99.90;;;;;;5038584;28;20207;-50
2022/10/26 03:22:06;;;;;;;1.13;1.03;;;13.50;99.90;;;;;;5053738;28;20483;-50
2022/10/26 03:24:33;;;;;;;1.83;1.73;;;13.50;99.90;;;;;;5037989;28;20205;-50
2022/10/26 03:27:00;;;;;;;1.73;1.63;;;13.50;99.90;;;;;;5046158;28;20300;-50
2022/10/26 03:29:27;;;;;;;3.17;2.73;;;13.50;99.90;;;;;;5045857;28;20204;-51
2022/10/26 03:31:54;;;;;;;4.67;3.43;;;13.50;99.90;;;;;;5042549;28;20203;-50
2022/10/26 03:34:21;;;;;;;6.33;3.77;;;13.50;99.90;;;;;;5043150;28;20202;-51
2022/10/26 03:36:49;;;;;;;5.57;4.27;;;13.40;99.90;;;;;;5044156;28;20229;-50
2022/10/26 03:39:16;;;;;;;7.37;4.80;;;13.30;99.90;;;;;;5050112;28;20672;-51
2022/10/26 03:41:44;;;;;;;4.27;3.90;;;13.30;99.90;;;;;;5042193;28;20195;-50
2022/10/26 03:44:11;;;;;;;6.67;4.80;;;13.30;99.90;;;;;;5040813;28;20206;-50
2022/10/26 03:46:38;;;;;;;5.53;5.00;;;13.20;99.90;;;;;;5050986;28;20283;-50
2022/10/26 03:49:05;;;;;;;5.87;5.37;;;13.20;99.90;;;;;;5050385;28;20209;-49
2022/10/26 03:51:32;;;;;;;9.97;5.20;;;13.30;99.90;;;;;;5041893;28;20257;-50
2022/10/26 03:54:00;;;;;;;11.37;6.17;;;13.30;99.90;;;;;;5033667;28;20261;-50
2022/10/26 03:56:27;;;;;;;5.60;5.20;;;13.30;99.90;;;;;;5033754;28;20265;-50
2022/10/26 03:58:54;;;;;;;8.60;5.43;;;13.20;99.90;;;;;;5036269;28;20198;-50
2022/10/26 04:01:21;;;;;;;5.20;4.83;;;13.20;99.90;;;;;;5045565;28;20626;-50
2022/10/26 04:03:48;;;;;;;5.47;4.97;;;13.20;99.90;;;;;;5050462;28;20202;-50
2022/10/26 04:06:15;;;;;;;6.77;6.03;;;13.20;99.90;;;;;;5047048;28;20328;-50
2022/10/26 04:08:42;;;;;;;8.83;6.80;;;13.20;99.90;;;;;;5052102;28;20203;-50
2022/10/26 04:11:11;;;;;;;7.00;6.37;;;13.20;99.90;;;;;;5042148;28;20197;-50
2022/10/26 04:13:38;;;;;;;7.37;5.27;;;13.10;99.90;;;;;;5044932;28;20201;-49
2022/10/26 04:16:05;;;;;;;8.30;6.77;;;13.10;99.90;;;;;;5049427;28;20221;-50
2022/10/26 04:18:32;;;;;;;6.00;5.50;;;13.10;99.90;;;;;;5050563;28;20205;-50
2022/10/26 04:21:01;;;;;;;9.90;6.00;;;13.00;99.90;;;;;;5052823;28;20204;-50
2022/10/26 04:23:29;;;;;;;6.63;6.13;;;13.00;99.90;;;;;;5033177;28;20225;-50
2022/10/26 04:25:56;;;;;;;11.60;6.60;;;13.00;99.90;;;;;;5049035;28;20224;-52
2022/10/26 04:28:24;;;;;;;7.87;7.13;;;13.10;99.90;;;;;;5038951;28;20567;-51
2022/10/26 04:30:51;;;;;;;10.50;7.60;;;13.10;99.90;;;;;;5049244;28;20201;-50
2022/10/26 04:33:18;;;;;;;8.43;7.20;;;13.00;99.90;;;;;;5051782;28;20198;-50
2022/10/26 04:35:46;;;;;;;10.13;7.93;;;13.00;99.90;;;;;;5051529;28;20225;-51
2022/10/26 04:38:14;;;;;;;8.57;7.77;;;13.00;99.90;;;;;;5052002;28;20572;-51
2022/10/26 04:40:41;;;;;;;7.73;7.00;;;13.00;99.90;;;;;;5051625;28;20662;-50
2022/10/26 04:43:08;;;;;;;9.00;7.87;;;13.00;99.90;;;;;;5051676;28;20252;-50
2022/10/26 04:45:37;;;;;;;9.60;6.67;;;13.00;99.90;;;;;;5052382;28;20212;-50
2022/10/26 04:48:06;;;;;;;8.80;7.93;;;13.00;99.90;;;;;;5051177;28;20201;-49
2022/10/26 04:50:34;;;;;;;7.53;6.73;;;13.00;99.90;;;;;;5049025;28;20212;-51
2022/10/26 04:53:01;;;;;;;8.53;6.67;;;12.90;99.90;;;;;;5048868;28;20256;-50
2022/10/26 04:55:28;;;;;;;7.77;7.00;;;12.90;99.90;;;;;;5051636;28;20700;-49
2022/10/26 04:57:55;;;;;;;9.17;8.27;;;12.90;99.90;;;;;;5051264;28;20197;-50
2022/10/26 05:00:22;;;;;;;10.53;9.13;;;12.80;99.90;;;;;;5051167;28;20201;-50
2022/10/26 05:02:50;;;;;;;15.10;9.97;;;12.80;99.90;;;;;;5052265;28;20206;-50
2022/10/26 05:05:17;;;;;;;11.87;9.03;;;12.80;99.90;;;;;;5042026;28;20199;-50
2022/10/26 05:07:44;;;;;;;9.27;7.97;;;12.80;99.90;;;;;;5032495;28;20722;-49
2022/10/26 05:10:12;;;;;;;8.60;7.53;;;12.80;99.90;;;;;;5040499;28;20209;-50
2022/10/26 05:12:39;;;;;;;9.47;8.37;;;12.70;99.90;;;;;;5043050;28;20656;-50
2022/10/26 05:15:07;;;;;;;9.77;7.27;;;12.70;99.90;;;;;;5051494;28;20197;-51
2022/10/26 05:17:34;;;;;;;8.67;7.33;;;12.80;99.90;;;;;;5051373;28;20586;-51
2022/10/26 05:20:04;;;;;;;6.77;5.43;;;12.80;99.90;;;;;;5051877;28;20202;-50
2022/10/26 05:22:32;;;;;;;5.27;4.77;;;12.80;99.90;;;;;;5051733;28;20202;-50
2022/10/26 05:24:59;;;;;;;5.97;4.27;;;12.80;99.90;;;;;;5050786;28;20227;-49
2022/10/26 05:27:26;;;;;;;5.80;3.33;;;12.80;99.90;;;;;;5051293;28;20213;-50
2022/10/26 05:29:53;;;;;;;3.47;3.23;;;12.80;99.90;;;;;;5044990;28;20197;-49
2022/10/26 05:32:20;;;;;;;6.17;1.97;;;12.90;99.90;;;;;;5048009;28;20193;-50
2022/10/26 05:34:47;;;;;;;1.60;1.50;;;12.90;99.90;;;;;;5050691;28;20228;-50
2022/10/26 05:37:15;;;;;;;2.73;1.47;;;13.00;99.90;;;;;;5051394;28;20225;-50
2022/10/26 05:39:43;;;;;;;1.50;1.40;;;13.10;99.90;;;;;;5051429;28;20204;-50
2022/10/26 05:42:10;;;;;;;5.50;1.07;;;13.20;99.90;;;;;;5051244;28;20236;-51
2022/10/26 05:44:37;;;;;;;1.50;1.30;;;13.30;99.90;;;;;;5051061;28;20731;-50
2022/10/26 05:47:04;;;;;;;4.00;0.93;;;13.40;99.90;;;;;;5051246;28;20225;-50
2022/10/26 05:49:31;;;;;;;1.50;1.17;;;13.50;99.90;;;;;;5050643;28;20248;-50
2022/10/26 05:51:58;;;;;;;2.23;1.20;;;13.60;99.90;;;;;;5049487;28;20256;-50
2022/10/26 05:54:27;;;;;;;1.70;1.30;;;13.60;99.90;;;;;;5051226;28;20200;-50
2022/10/26 05:56:54;;;;;;;1.40;1.23;;;13.70;99.90;;;;;;5050769;28;20224;-50
2022/10/26 05:59:22;;;;;;;1.87;0.77;;;13.70;99.90;;;;;;5050806;28;20201;-50
2022/10/26 06:02:02;;;;;;;2.33;0.93;;;13.80;99.90;;;;;;5049824;28;20684;-50
2022/10/26 06:04:37;;;;;;;1.50;0.87;;;13.80;99.90;;;;;;5041200;28;20205;-50
2022/10/26 06:07:11;;;;;;;2.83;1.60;;;14.00;99.90;;;;;;5040492;28;20738;-50
2022/10/26 06:09:41;;;;;;;2.33;1.07;;;14.10;99.90;;;;;;5040742;28;20246;-49
2022/10/26 06:12:10;;;;;;;4.47;1.23;;;14.00;99.90;;;;;;5042169;28;20681;-50
2022/10/26 06:14:38;;;;;;;6.47;1.50;;;14.00;99.90;;;;;;5037355;28;20206;-50
2022/10/26 06:17:36;;;;;;;3.50;1.23;;;13.90;99.90;;;;;;5042500;28;20218;-51
2022/10/26 06:20:37;;;;;;;1.70;1.60;;;13.90;99.90;;;;;;5042907;28;20195;-50
2022/10/26 06:23:24;;;;;;;1.73;1.40;;;13.80;99.90;;;;;;5002961;28;20215;-51
2022/10/26 06:26:02;;;;;;;1.90;1.40;;;13.70;99.90;;;;;;5044050;28;20253;-50
2022/10/26 06:28:42;;;;;;;3.03;1.60;;;13.60;99.90;;;;;;5047845;28;20702;-50
2022/10/26 06:31:17;;;;;;;1.60;1.17;;;13.50;99.90;;;;;;5045414;28;20556;-51
2022/10/26 06:33:44;;;;;;;0.83;0.80;;;13.50;99.90;;;;;;5049369;28;20198;-50
2022/10/26 06:36:21;;;;;;;8.13;2.63;;;13.50;99.90;;;;;;5046842;28;20230;-50
2022/10/26 06:38:53;;;;;;;3.13;1.27;;;13.50;99.90;;;;;;5048068;28;20229;-50
2022/10/26 06:41:23;;;;;;;2.00;1.13;;;13.50;99.90;;;;;;5050787;28;20202;-50
2022/10/26 06:43:53;;;;;;;1.73;0.70;;;13.60;99.90;;;;;;5048159;28;20198;-51
2022/10/26 06:46:28;;;;;;;3.73;1.50;;;13.70;99.90;;;;;;5039873;28;20232;-49
2022/10/26 06:49:03;;;;;;;1.97;0.73;;;13.80;99.90;;;;;;5050677;28;20208;-50
2022/10/26 06:51:33;;;;;;;1.57;0.80;;;13.90;99.90;;;;;;5048258;28;20200;-50
2022/10/26 06:54:06;;;;;;;3.40;1.00;;;13.90;99.90;;;;;;5054409;28;20194;-50
2022/10/26 06:56:36;;;;;;;2.83;0.60;;;14.10;99.90;;;;;;5035158;28;20215;-50
2022/10/26 06:59:08;;;;;;;2.03;1.93;;;14.20;99.90;;;;;;5050159;28;20197;-50
2022/10/26 07:01:35;;;;;;;1.93;1.30;;;14.40;99.90;;;;;;5035436;28;20245;-51
2022/10/26 07:04:02;;;;;;;2.17;1.37;;;14.50;99.90;;;;;;5034946;28;20198;-50
2022/10/26 07:06:30;;;;;;;0.97;0.87;;;14.60;99.90;;;;;;5035155;28;20229;-50
2022/10/26 07:08:57;;;;;;;0.80;0.70;;;14.70;99.90;;;;;;5050434;28;20250;-50
2022/10/26 07:11:24;;;;;;;2.93;0.50;;;14.70;99.90;;;;;;5034920;28;20549;-50
2022/10/26 07:13:55;;;;;;;7.63;0.93;;;14.80;99.90;;;;;;5034441;28;20755;-50
2022/10/26 07:16:22;;;;;;;2.00;0.70;;;14.80;99.90;;;;;;5038758;28;20218;-50
2022/10/26 07:18:51;;;;;;;2.40;0.90;;;14.80;99.90;;;;;;5053804;28;20198;-50
2022/10/26 07:21:18;;;;;;;2.73;0.60;;;14.80;99.90;;;;;;5043330;28;20198;-50
2022/10/26 07:23:45;;;;;;;0.87;0.40;;;14.90;99.90;;;;;;5052410;28;20205;-49
2022/10/26 07:26:12;;;;;;;1.77;0.67;;;14.80;99.90;;;;;;5052612;28;20639;-50
2022/10/26 07:28:39;;;;;;;4.87;1.70;;;14.90;99.90;;;;;;5052251;28;20226;-50
2022/10/26 07:31:08;;;;;;;3.93;1.30;;;14.90;99.90;;;;;;5047689;28;20214;-50
2022/10/26 07:33:35;;;;;;;3.30;1.07;;;14.90;99.90;;;;;;5043913;28;20213;-50
2022/10/26 07:36:02;;;;;;;3.27;0.87;;;14.90;99.90;;;;;;5040891;28;20233;-50
2022/10/26 07:38:29;;;;;;;2.33;0.77;;;15.00;99.90;;;;;;5052383;28;20202;-50
2022/10/26 07:40:56;;;;;;;1.93;1.63;;;14.90;99.90;;;;;;5053181;28;20668;-50
2022/10/26 07:43:23;;;;;;;2.57;0.80;;;14.90;99.90;;;;;;5053001;28;20194;-50
2022/10/26 07:45:51;;;;;;;3.80;0.60;;;14.90;99.90;;;;;;5053007;28;20233;-51
2022/10/26 07:48:19;;;;;;;2.20;1.03;;;14.90;99.90;;;;;;5048491;28;20249;-50
2022/10/26 07:50:46;;;;;;;0.90;0.90;;;14.90;99.90;;;;;;5048036;28;20209;-51
2022/10/26 07:53:14;;;;;;;1.33;1.23;;;14.90;99.90;;;;;;5052798;28;20205;-50
2022/10/26 07:55:41;;;;;;;1.43;1.00;;;14.80;99.90;;;;;;5052206;28;20214;-50
2022/10/26 07:58:08;;;;;;;0.70;0.70;;;14.80;99.90;;;;;;5052698;28;20194;-50
2022/10/26 08:00:35;;;;;;;1.30;0.73;;;14.90;99.90;;;;;;5048298;28;20198;-51
2022/10/26 08:03:02;;;;;;;1.23;0.93;;;15.00;99.90;;;;;;5051911;28;20206;-50
2022/10/26 08:05:30;;;;;;;2.70;1.27;;;15.00;99.90;;;;;;5045551;28;20226;-50
2022/10/26 08:07:57;;;;;;;0.70;0.70;;;15.00;99.90;;;;;;5044578;28;20233;-50
2022/10/26 08:10:24;;;;;;;2.30;0.90;;;15.10;99.90;;;;;;5051676;28;20212;-51
2022/10/26 08:12:53;;;;;;;1.23;0.90;;;15.10;99.90;;;;;;5052325;28;20260;-52
2022/10/26 08:15:21;;;;;;;3.47;1.50;;;15.00;99.90;;;;;;5048019;28;20277;-52
2022/10/26 08:17:48;;;;;;;0.80;0.80;;;14.90;99.90;;;;;;5051468;28;20197;-51
2022/10/26 08:20:15;;;;;;;1.23;0.97;;;14.80;99.90;;;;;;5051194;28;20201;-52
2022/10/26 08:22:43;;;;;;;0.80;0.80;;;14.80;99.90;;;;;;5047022;28;20207;-52
2022/10/26 08:25:10;;;;;;;1.90;1.10;;;14.80;99.90;;;;;;5033282;28;20257;-53
2022/10/26 08:27:37;;;;;;;1.07;0.73;;;14.80;99.90;;;;;;5033360;28;20226;-52
2022/10/26 08:30:05;;;;;;;1.20;0.70;;;14.90;99.90;;;;;;5044833;28;20201;-52
2022/10/26 08:32:32;;;;;;;5.10;0.70;;;14.90;99.90;;;;;;5051518;28;20209;-52
2022/10/26 08:34:59;;;;;;;2.77;1.20;;;15.00;99.90;;;;;;5052617;28;20275;-52
2022/10/26 08:37:27;;;;;;;1.33;0.73;;;15.10;99.90;;;;;;5052840;28;20229;-51
2022/10/26 08:39:55;;;;;;;1.53;1.33;;;15.20;99.90;;;;;;5052862;28;20688;-52
2022/10/26 08:42:28;;;;;;;3.60;1.53;;;15.40;99.90;;;;;;5051401;28;20210;-53
2022/10/26 08:45:01;;;;;;;0.77;0.77;;;15.50;99.90;;;;;;5040685;28;20199;-53
2022/10/26 08:47:34;;;;;;;1.63;0.70;;;15.60;99.90;;;;;;5032683;28;20222;-53
2022/10/26 08:50:04;;;;;;;3.23;1.00;;;15.60;99.90;;;;;;5036900;28;20221;-53
2022/10/26 08:52:47;;;;;;;2.17;0.60;;;15.60;99.90;;;;;;5047252;28;20671;-53
2022/10/26 08:55:19;;;;;;;1.00;0.90;;;15.60;99.90;;;;;;5036155;28;20718;-53
2022/10/26 08:57:48;;;;;;;2.27;0.70;;;15.60;99.90;;;;;;5049275;28;20247;-53
2022/10/26 09:00:19;;;;;;;1.77;0.90;;;15.60;99.90;;;;;;5048190;28;20849;-53
2022/10/26 09:02:50;;;;;;;1.10;0.77;;;15.60;99.90;;;;;;5046624;28;20553;-53
2022/10/26 09:05:20;;;;;;;12.83;9.17;;;15.60;99.90;;;;;;5041965;28;20202;-53
2022/10/26 09:07:56;;;;;;;3.50;3.20;;;15.60;99.90;;;;;;5050371;28;20217;-53
2022/10/26 09:10:39;;;;;;;2.37;1.30;;;15.70;99.90;;;;;;5048467;28;20197;-52
2022/10/26 09:13:18;;;;;;;4.33;1.93;;;15.70;99.90;;;;;;5045811;28;20193;-53
2022/10/26 09:15:54;;;;;;;2.87;1.37;;;15.70;99.90;;;;;;5048789;28;20217;-53
2022/10/26 09:18:35;;;;;;;2.97;0.90;;;15.80;99.90;;;;;;5039588;28;20650;-52
2022/10/26 09:21:22;;;;;;;0.90;0.90;;;15.70;99.90;;;;;;5050322;28;20275;-52
2022/10/26 09:24:02;;;;;;;6.03;1.47;;;15.80;99.90;;;;;;5048464;28;20194;-51
2022/10/26 09:26:37;;;;;;;2.10;1.23;;;15.70;99.90;;;;;;5039792;28;20221;-52
2022/10/26 09:29:07;;;;;;;1.87;1.23;;;15.80;99.90;;;;;;5042406;28;20209;-53
2022/10/26 09:31:39;;;;;;;1.37;0.87;;;16.00;99.90;;;;;;5050591;28;20209;-53
2022/10/26 09:34:08;;;;;;;5.53;1.33;;;16.10;99.90;;;;;;5035412;28;20237;-50
2022/10/26 09:36:35;;;;;;;1.73;1.33;;;16.20;99.90;;;;;;5031012;28;20226;-51
2022/10/26 09:39:14;;;;;;;2.23;1.20;;;16.20;99.90;;;;;;5039589;28;20281;-50
2022/10/26 09:41:45;;;;;;;0.70;0.60;;;16.20;99.90;;;;;;5044223;28;20732;-50
2022/10/26 09:44:19;;;;;;;2.80;2.00;;;16.20;99.90;;;;;;5045803;28;20194;-50
2022/10/26 09:46:53;;;;;;;3.90;1.73;;;16.30;99.90;;;;;;5050626;28;20213;-51
2022/10/26 09:49:25;;;;;;;7.70;1.80;;;16.40;99.90;;;;;;5034910;28;20225;-52
2022/10/26 09:51:52;;;;;;;1.47;1.00;;;16.50;99.90;;;;;;5050536;28;20224;-51
2022/10/26 09:54:21;;;;;;;0.90;0.90;;;16.50;99.90;;;;;;5049954;28;20201;-50
2022/10/26 09:56:53;;;;;;;3.13;1.87;;;16.50;99.90;;;;;;5050373;28;20275;-51
2022/10/26 09:59:23;;;;;;;2.23;1.40;;;16.60;99.90;;;;;;5045046;28;20725;-50
2022/10/26 10:01:50;;;;;;;1.17;0.97;;;16.80;99.90;;;;;;5044205;28;20244;-50
2022/10/26 10:04:20;;;;;;;1.90;0.90;;;17.10;99.90;;;;;;5048662;28;20193;-50
2022/10/26 10:06:49;;;;;;;2.40;1.30;;;17.50;99.90;;;;;;5035327;28;20226;-50
2022/10/26 10:09:17;;;;;;;1.50;0.60;;;18.30;99.90;;;;;;5030965;28;20215;-50
2022/10/26 10:11:53;;;;;;;4.10;0.87;;;18.90;99.90;;;;;;5034649;28;20268;-50
2022/10/26 10:14:23;;;;;;;1.97;1.00;;;19.00;99.90;;;;;;5034584;28;20198;-50
2022/10/26 10:16:53;;;;;;;0.70;0.70;;;18.50;99.90;;;;;;5038375;28;20706;-50
2022/10/26 10:19:25;;;;;;;2.80;1.27;;;18.10;99.90;;;;;;5050095;28;20194;-50
2022/10/26 10:21:56;;;;;;;4.83;1.23;;;18.00;99.90;;;;;;5050580;28;20275;-49
2022/10/26 10:24:26;;;;;;;1.30;1.20;;;17.90;99.90;;;;;;5043307;28;20264;-50
2022/10/26 10:26:58;;;;;;;1.90;0.80;;;17.90;99.90;;;;;;5035109;28;20218;-50
2022/10/26 10:29:28;;;;;;;5.43;1.27;;;17.90;99.90;;;;;;5047766;28;20217;-50
2022/10/26 10:31:59;;;;;;;1.43;0.80;;;17.90;99.90;;;;;;5040032;28;20202;-50
2022/10/26 10:34:27;;;;;;;1.60;0.90;;;17.90;99.90;;;;;;5048525;28;20201;-50
2022/10/26 10:36:55;;;;;;;1.40;1.30;;;17.80;99.90;;;;;;5046858;28;20312;-50
2022/10/26 10:39:38;;;;;;;1.27;1.00;;;17.70;99.90;;;;;;5049687;28;20246;-50
2022/10/26 10:42:15;;;;;;;2.53;1.37;;;17.70;99.90;;;;;;5048476;28;20255;-51
2022/10/26 10:44:46;;;;;;;3.87;1.63;;;17.60;99.90;;;;;;5047403;28;20205;-51
2022/10/26 10:47:21;;;;;;;0.80;0.80;;;17.60;99.90;;;;;;5045447;28;20297;-50
2022/10/26 10:49:53;;;;;;;1.40;0.83;;;17.70;99.90;;;;;;5050274;28;20590;-49
2022/10/26 10:52:26;;;;;;;1.20;1.10;;;17.90;99.90;;;;;;5049707;28;20252;-50
2022/10/26 10:55:11;;;;;;;3.47;1.10;;;18.10;99.90;;;;;;5052873;28;20202;-50
2022/10/26 10:57:56;;;;;;;1.13;1.10;;;18.30;99.90;;;;;;5049634;28;20370;-50
2022/10/26 11:00:25;;;;;;;1.33;0.83;;;18.20;99.90;;;;;;5053377;28;20194;-50
2022/10/26 11:03:19;;;;;;;1.53;0.90;;;18.10;99.90;;;;;;5052910;28;20208;-50
2022/10/26 11:06:00;;;;;;;1.40;0.97;;;18.10;99.90;;;;;;5052775;28;20214;-50
2022/10/26 11:08:32;;;;;;;7.47;1.47;;;18.00;99.90;;;;;;5045312;28;20291;-50
2022/10/26 11:11:03;;;;;;;1.90;0.53;;;18.00;99.90;;;;;;5052846;28;20197;-50
2022/10/26 11:13:36;;;;;;;1.40;1.40;;;18.00;99.90;;;;;;5053048;28;20729;-50
2022/10/26 11:16:12;;;;;;;2.40;0.80;;;18.00;99.90;;;;;;5051104;28;20771;-50
2022/10/26 11:18:45;;;;;;;1.30;1.20;;;18.00;99.90;;;;;;5049141;28;20796;-51
2022/10/26 11:21:23;;;;;;;0.93;0.93;;;18.10;99.90;;;;;;5034475;28;20198;-50
2022/10/26 11:24:01;;;;;;;0.60;0.50;;;18.00;99.90;;;;;;5033544;28;20209;-50
2022/10/26 11:26:33;;;;;;;1.40;0.60;;;17.90;99.90;;;;;;5049456;28;20217;-50
2022/10/26 11:29:03;;;;;;;1.13;1.03;;;17.80;99.90;;;;;;5046770;28;20232;-50
2022/10/26 11:31:37;;;;;;;3.27;0.90;;;17.60;99.90;;;;;;5046039;28;20205;-50
2022/10/26 11:34:21;;;;;;;2.57;0.90;;;17.60;99.90;;;;;;5047556;28;20675;-50
2022/10/26 11:36:53;;;;;;;3.30;1.03;;;17.50;99.90;;;;;;5049182;28;20275;-50
2022/10/26 11:39:28;;;;;;;3.40;1.00;;;17.50;99.90;;;;;;5050550;28;20206;-50
2022/10/26 11:42:01;;;;;;;0.63;0.63;;;17.60;99.90;;;;;;5046111;28;20749;-50
2022/10/26 11:44:35;;;;;;;2.33;1.73;;;17.60;99.90;;;;;;5033045;28;20679;-50
2022/10/26 11:47:08;;;;;;;4.73;1.20;;;17.70;99.90;;;;;;5033501;28;20362;-50
2022/10/26 11:49:42;;;;;;;1.77;0.70;;;17.90;99.90;;;;;;5047303;28;20225;-50
2022/10/26 11:52:16;;;;;;;2.97;1.63;;;18.10;99.90;;;;;;5052576;28;20814;-50
2022/10/26 11:54:48;;;;;;;1.27;1.17;;;18.20;99.90;;;;;;5052174;28;20221;-50
2022/10/26 11:57:16;;;;;;;2.00;0.70;;;18.10;99.90;;;;;;5048040;28;20230;-50
2022/10/26 11:59:48;;;;;;;3.67;0.60;;;18.10;99.90;;;;;;5043164;28;20731;-50
2022/10/26 12:02:20;;;;;;;2.87;0.73;;;18.30;99.90;;;;;;5033147;28;20268;-50
2022/10/26 12:04:53;;;;;;;0.83;0.60;;;18.50;99.90;;;;;;5049049;28;20190;-51
2022/10/26 12:07:26;;;;;;;2.20;0.80;;;18.80;99.90;;;;;;5036144;28;20717;-51
2022/10/26 12:09:55;;;;;;;0.83;0.83;;;19.10;99.90;;;;;;5048559;28;20283;-50
2022/10/26 12:12:32;;;;;;;2.00;0.53;;;19.30;99.90;;;;;;5051884;28;20289;-50
2022/10/26 12:15:07;;;;;;;1.50;0.80;;;19.40;99.90;;;;;;5051026;28;20672;-50
2022/10/26 12:17:46;;;;;;;4.43;1.70;;;19.50;99.90;;;;;;5047414;28;20280;-50
2022/10/26 12:20:40;;;;;;;4.20;0.63;;;19.60;99.90;;;;;;5043160;28;20192;-50
2022/10/26 12:23:11;;;;;;;1.00;0.70;;;19.60;99.90;;;;;;5042274;28;20202;-50
2022/10/26 12:25:39;;;;;;;2.33;1.03;;;19.50;99.90;;;;;;5051671;28;20771;-50
2022/10/26 12:28:27;;;;;;;1.50;0.50;;;19.60;99.90;;;;;;5051913;28;20198;-50
2022/10/26 12:31:33;;;;;;;2.20;0.67;;;19.50;99.90;;;;;;5051554;28;20638;-50
2022/10/26 12:34:00;;;;;;;1.50;0.57;;;19.50;99.90;;;;;;5041377;28;20279;-49
2022/10/26 12:36:48;;;;;;;1.27;0.73;;;19.40;99.90;;;;;;5051187;28;20218;-50
2022/10/26 12:39:29;;;;;;;1.90;0.50;;;19.40;99.90;;;;;;5046435;28;20615;-49
2022/10/26 12:41:58;;;;;;;0.87;0.40;;;19.40;99.90;;;;;;5051341;28;20253;-50
2022/10/26 12:44:37;;;;;;;0.70;0.70;;;19.40;99.90;;;;;;5041853;28;20256;-50
2022/10/26 12:47:06;;;;;;;2.83;0.50;;;19.30;99.90;;;;;;5046543;28;20271;-50
2022/10/26 12:49:58;;;;;;;2.83;0.80;;;19.40;99.90;;;;;;5046193;28;20227;-50
2022/10/26 12:52:41;;;;;;;1.07;0.50;;;19.30;99.90;;;;;;5043943;28;20256;-50
2022/10/26 12:55:38;;;;;;;2.13;0.70;;;19.40;99.90;;;;;;5047645;28;20201;-50
2022/10/26 12:58:50;;;;;;;2.00;1.23;;;19.40;99.90;;;;;;5036400;28;20202;-50
2022/10/26 13:01:57;;;;;;;3.17;1.07;;;19.30;99.90;;;;;;5031051;28;20198;-50
2022/10/26 13:04:52;;;;;;;1.60;0.50;;;19.20;99.90;;;;;;5049781;28;20247;-50
2022/10/26 13:07:24;;;;;;;1.80;0.63;;;19.00;99.90;;;;;;5034735;28;20296;-50
2022/10/26 13:10:04;;;;;;;0.83;0.50;;;18.90;99.90;;;;;;5042670;28;20219;-49